createdAt,value
2023-06-30T05:54:18.173Z,14.40
2023-06-30T05:57:06.538Z,18.70
2023-06-30T05:59:54.437Z,18.80
2023-06-30T06:02:41.951Z,19.00
2023-06-30T06:05:31.170Z,19.20
2023-06-30T06:08:19.168Z,19.40
2023-06-30T06:11:07.006Z,19.60
2023-06-30T06:13:54.329Z,19.70
2023-06-30T06:16:45.972Z,19.90
2023-06-30T06:19:33.493Z,20.10
2023-06-30T06:22:22.551Z,20.20
2023-06-30T06:25:11.904Z,20.40
2023-06-30T06:27:59.404Z,20.60
2023-06-30T06:30:47.332Z,20.80
2023-06-30T06:33:34.851Z,21.00
2023-06-30T06:36:23.214Z,21.20
2023-06-30T06:39:13.256Z,21.30
2023-06-30T06:42:01.139Z,21.40
2023-06-30T06:44:49.901Z,21.60
2023-06-30T06:48:15.108Z,21.70
2023-06-30T06:51:03.620Z,21.80
2023-06-30T06:53:54.349Z,22.00
2023-06-30T06:56:43.712Z,22.20
2023-06-30T06:59:31.282Z,22.30
2023-06-30T07:02:19.012Z,22.40
2023-06-30T07:05:07.124Z,22.50
2023-06-30T07:07:54.844Z,22.60
2023-06-30T07:10:42.961Z,22.70
2023-06-30T07:13:32.626Z,22.80
2023-06-30T07:16:23.075Z,22.90
2023-06-30T07:19:10.865Z,23.00
2023-06-30T07:21:58.294Z,23.10
2023-06-30T07:24:45.916Z,23.10
2023-06-30T07:27:33.429Z,23.20
2023-06-30T07:30:22.974Z,23.40
2023-06-30T07:33:11.870Z,23.70
2023-06-30T07:35:59.722Z,24.00
2023-06-30T07:38:47.763Z,24.40
2023-06-30T07:41:36.760Z,24.70
2023-06-30T07:44:24.549Z,24.90
2023-06-30T07:47:13.713Z,25.00
2023-06-30T07:50:02.418Z,25.20
2023-06-30T07:52:51.101Z,25.40
2023-06-30T07:55:38.561Z,25.60
2023-06-30T07:58:26.820Z,25.70
2023-06-30T08:01:15.007Z,25.80
2023-06-30T08:04:04.193Z,26.10
2023-06-30T08:06:52.351Z,26.50
2023-06-30T08:09:40.239Z,26.60
2023-06-30T08:12:28.043Z,26.70
2023-06-30T08:15:15.740Z,26.70
2023-06-30T08:18:10.330Z,26.80
2023-06-30T08:21:00.537Z,26.80
2023-06-30T08:23:47.989Z,26.90
2023-06-30T08:26:35.827Z,27.00
2023-06-30T08:29:23.327Z,27.00
2023-06-30T08:32:11.488Z,27.40
2023-06-30T08:35:02.100Z,27.80
2023-06-30T08:37:53.024Z,28.40
2023-06-30T08:40:42.134Z,28.60
2023-06-30T08:43:31.769Z,28.70
2023-06-30T08:46:24.468Z,28.70
2023-06-30T08:49:14.665Z,28.60
2023-06-30T08:52:03.003Z,28.50
2023-06-30T08:54:51.982Z,28.30
2023-06-30T08:57:42.441Z,28.10
2023-06-30T09:00:29.883Z,27.90
2023-06-30T09:03:18.159Z,27.70
2023-06-30T09:06:06.284Z,27.60
2023-06-30T09:09:01.478Z,27.60
2023-06-30T09:11:51.118Z,27.70
2023-06-30T09:14:42.176Z,27.70
2023-06-30T09:17:31.055Z,27.80
2023-06-30T09:20:19.196Z,27.80
2023-06-30T09:23:06.949Z,27.80
2023-06-30T09:25:54.997Z,27.70
2023-06-30T09:28:45.339Z,27.60
2023-06-30T09:31:33.717Z,27.50
2023-06-30T09:34:21.553Z,27.30
2023-06-30T09:37:12.417Z,27.10
2023-06-30T09:40:00.199Z,27.00
2023-06-30T09:42:48.420Z,26.80
2023-06-30T09:45:37.829Z,26.70
2023-06-30T09:48:31.018Z,26.60
2023-06-30T09:51:22.846Z,26.50
2023-06-30T09:54:11.483Z,26.40
2023-06-30T09:57:00.052Z,26.30
2023-06-30T09:59:48.664Z,26.10
2023-06-30T10:02:37.676Z,26.00
2023-06-30T10:05:25.527Z,26.00
2023-06-30T10:08:14.334Z,25.90
2023-06-30T10:11:02.285Z,25.90
2023-06-30T10:13:51.435Z,25.90
2023-06-30T10:16:40.830Z,25.90
2023-06-30T10:19:30.837Z,25.90
2023-06-30T10:22:18.576Z,25.80
2023-06-30T10:25:09.483Z,25.80
2023-06-30T10:27:57.351Z,25.70
2023-06-30T10:30:45.909Z,25.60
2023-06-30T10:33:33.872Z,25.60
2023-06-30T10:36:23.231Z,25.70
2023-06-30T10:39:12.336Z,25.70
2023-06-30T10:42:00.433Z,25.70
2023-06-30T10:44:49.319Z,25.70
2023-06-30T10:47:40.747Z,25.70
2023-06-30T10:50:28.392Z,25.70
2023-06-30T10:53:22.628Z,25.70
2023-06-30T10:56:11.111Z,25.80
2023-06-30T10:59:00.802Z,25.80
2023-06-30T11:02:14.031Z,25.90
2023-06-30T11:05:20.942Z,26.00
2023-06-30T11:08:10.380Z,26.20
2023-06-30T11:11:04.788Z,26.50
2023-06-30T11:14:06.456Z,26.70
2023-06-30T11:17:07.957Z,26.90
2023-06-30T11:20:13.750Z,27.10
2023-06-30T11:23:03.443Z,27.20
2023-06-30T11:25:51.022Z,27.20
2023-06-30T11:28:41.868Z,27.10
2023-06-30T11:31:37.951Z,27.00
2023-06-30T11:34:27.054Z,26.90
2023-06-30T11:37:14.836Z,26.90
2023-06-30T11:40:04.881Z,26.80
2023-06-30T11:42:54.528Z,26.80
2023-06-30T11:45:45.341Z,26.80
2023-06-30T11:48:39.829Z,26.80
2023-06-30T11:51:27.513Z,26.80
2023-06-30T11:54:16.082Z,26.80
2023-06-30T11:57:05.756Z,26.70
2023-06-30T11:59:53.731Z,26.60
2023-06-30T12:02:48.758Z,26.50
2023-06-30T12:05:44.020Z,26.40
2023-06-30T12:08:33.092Z,26.20
2023-06-30T12:11:20.880Z,26.20
2023-06-30T12:14:12.311Z,26.30
2023-06-30T12:17:00.296Z,26.50
2023-06-30T12:19:49.506Z,26.60
2023-06-30T12:22:39.987Z,26.70
2023-06-30T12:25:28.871Z,26.70
2023-06-30T12:28:16.294Z,26.70
2023-06-30T12:31:04.171Z,26.70
2023-06-30T12:33:55.597Z,26.60
2023-06-30T12:36:44.810Z,26.50
2023-06-30T12:39:33.351Z,26.30
2023-06-30T12:42:21.656Z,26.20
2023-06-30T12:45:10.867Z,26.10
2023-06-30T12:47:58.756Z,26.00
2023-06-30T12:50:46.843Z,25.90
2023-06-30T12:53:36.064Z,25.80
2023-06-30T12:56:23.583Z,25.80
2023-06-30T12:59:11.052Z,25.80
2023-06-30T13:01:58.595Z,25.90
2023-06-30T13:04:46.370Z,26.00
2023-06-30T13:07:34.347Z,26.00
2023-06-30T13:10:23.205Z,26.00
2023-06-30T13:13:11.381Z,26.00
2023-06-30T13:15:58.981Z,26.00
2023-06-30T13:18:47.275Z,26.10
2023-06-30T13:21:35.236Z,26.20
2023-06-30T13:24:27.048Z,26.30
2023-06-30T13:27:17.459Z,26.30
2023-06-30T13:30:05.750Z,26.20
2023-06-30T13:32:53.611Z,26.10
2023-06-30T13:35:41.444Z,26.10
2023-06-30T13:38:29.020Z,25.90
2023-06-30T13:41:16.455Z,25.70
2023-06-30T13:44:05.968Z,25.50
2023-06-30T13:46:53.816Z,25.40
2023-06-30T13:49:41.518Z,25.30
2023-06-30T13:52:28.944Z,25.10
2023-06-30T13:55:16.821Z,25.00
2023-06-30T13:58:04.269Z,24.90
2023-06-30T14:00:53.679Z,24.80
2023-06-30T14:03:42.188Z,24.80
2023-06-30T14:06:29.939Z,24.60
2023-06-30T14:09:17.741Z,24.50
2023-06-30T14:12:06.480Z,24.40
2023-06-30T14:14:54.366Z,24.20
2023-06-30T14:17:43.248Z,24.10
2023-06-30T14:20:30.929Z,24.00
2023-06-30T14:23:18.625Z,23.80
2023-06-30T14:26:06.747Z,23.70
2023-06-30T14:28:54.623Z,23.50
2023-06-30T14:31:42.555Z,23.30
2023-06-30T14:34:31.618Z,23.30
2023-06-30T14:37:19.504Z,23.30
2023-06-30T14:40:08.083Z,23.30
2023-06-30T14:42:55.437Z,23.30
2023-06-30T14:45:43.128Z,23.30
2023-06-30T14:48:31.432Z,23.30
2023-06-30T14:51:20.375Z,23.30
2023-06-30T14:54:07.713Z,23.40
2023-06-30T14:56:55.404Z,23.40
2023-06-30T14:59:43.022Z,23.40
2023-06-30T15:02:30.540Z,23.30
2023-06-30T15:05:18.329Z,23.20
2023-06-30T15:08:08.463Z,23.20
2023-06-30T15:10:56.352Z,23.10
2023-06-30T15:13:44.646Z,23.10
2023-06-30T15:16:32.896Z,23.10
2023-06-30T15:19:21.242Z,23.10
2023-06-30T15:22:08.867Z,23.10
2023-06-30T15:24:59.307Z,23.00
2023-06-30T15:27:46.812Z,22.90
2023-06-30T15:30:34.425Z,22.90
2023-06-30T15:33:22.402Z,22.80
2023-06-30T15:36:10.564Z,22.80
2023-06-30T15:38:58.263Z,22.70
2023-06-30T15:41:47.347Z,22.70
2023-06-30T15:44:35.233Z,22.60
2023-06-30T15:47:22.923Z,22.60
2023-06-30T15:50:10.575Z,22.40
2023-06-30T15:52:58.501Z,22.30
2023-06-30T15:55:48.133Z,22.20
2023-06-30T15:58:37.801Z,22.10
2023-06-30T16:01:25.236Z,22.10
2023-06-30T16:04:13.104Z,22.10
2023-06-30T16:07:00.859Z,22.00
2023-06-30T16:09:48.372Z,22.00
2023-06-30T16:12:35.999Z,21.90
2023-06-30T16:15:25.184Z,21.90
2023-06-30T16:18:12.762Z,21.90
2023-06-30T16:21:00.306Z,21.90
2023-06-30T16:23:47.878Z,21.90
2023-06-30T16:26:35.566Z,21.90
2023-06-30T16:29:23.112Z,21.90
2023-06-30T16:32:12.318Z,21.80
2023-06-30T16:35:01.963Z,21.80
2023-06-30T16:37:56.493Z,21.80
2023-06-30T16:40:44.972Z,21.70
2023-06-30T16:43:32.756Z,21.60
2023-06-30T16:46:20.359Z,21.50
2023-06-30T16:49:09.391Z,21.50
2023-06-30T16:51:57.030Z,21.40
2023-06-30T16:54:44.576Z,21.40
2023-06-30T16:57:32.066Z,21.30
2023-06-30T17:00:20.964Z,21.20
2023-06-30T17:03:09.122Z,21.20
2023-06-30T17:05:58.239Z,21.10
2023-06-30T17:08:45.909Z,21.10
2023-06-30T17:11:34.133Z,21.00
2023-06-30T17:14:21.931Z,21.00
2023-06-30T17:17:09.963Z,20.90
2023-06-30T17:19:57.946Z,20.90
2023-06-30T17:22:46.686Z,20.80
2023-06-30T17:25:34.567Z,20.70
2023-06-30T17:28:22.222Z,20.50
2023-06-30T17:31:09.841Z,20.40
2023-06-30T17:33:57.332Z,20.30
2023-06-30T17:36:45.397Z,20.30
2023-06-30T17:39:34.262Z,20.20
2023-06-30T17:42:21.889Z,20.20
2023-06-30T17:45:09.934Z,20.20
2023-06-30T17:47:57.382Z,20.10
2023-06-30T17:50:45.213Z,20.10
2023-06-30T17:53:33.083Z,20.00
2023-06-30T17:56:22.349Z,20.00
2023-06-30T17:59:09.913Z,19.90
2023-06-30T18:01:58.110Z,19.90
2023-06-30T18:04:45.850Z,19.80
2023-06-30T18:07:33.743Z,19.80
2023-06-30T18:10:22.011Z,19.80
2023-06-30T18:13:11.149Z,19.70
2023-06-30T18:15:58.738Z,19.70
2023-06-30T18:18:46.212Z,19.70
2023-06-30T18:21:34.051Z,19.70
2023-06-30T18:24:22.938Z,19.70
2023-06-30T18:27:10.372Z,19.60
2023-06-30T18:29:59.409Z,19.60
2023-06-30T18:32:47.069Z,19.60
2023-06-30T18:35:34.908Z,19.50
2023-06-30T18:38:23.121Z,19.50
2023-06-30T18:41:11.584Z,19.50
2023-06-30T18:43:59.955Z,19.50
2023-06-30T18:46:49.109Z,19.40
2023-06-30T18:49:37.187Z,19.40
2023-06-30T18:52:24.697Z,19.40
2023-06-30T18:55:12.187Z,19.30
2023-06-30T18:57:59.923Z,19.30
2023-06-30T19:00:47.394Z,19.20
2023-06-30T19:03:36.506Z,19.20
2023-06-30T19:06:25.969Z,19.20
2023-06-30T19:09:14.536Z,19.10
2023-06-30T19:12:02.225Z,19.10
2023-06-30T19:14:49.866Z,19.00
2023-06-30T19:17:37.936Z,19.00
2023-06-30T19:20:27.336Z,18.90
2023-06-30T19:23:15.604Z,18.90
2023-06-30T19:26:03.875Z,18.80
2023-06-30T19:28:51.318Z,18.80
2023-06-30T19:31:38.982Z,18.70
2023-06-30T19:34:26.620Z,18.70
2023-06-30T19:37:15.469Z,18.60
2023-06-30T19:40:03.026Z,18.60
2023-06-30T19:42:50.925Z,18.50
2023-06-30T19:45:38.740Z,18.50
2023-06-30T19:48:26.370Z,18.40
2023-06-30T19:51:14.725Z,18.40
2023-06-30T19:54:03.969Z,18.40
2023-06-30T19:56:52.101Z,18.30
2023-06-30T19:59:39.618Z,18.30
2023-06-30T20:02:27.371Z,18.30
2023-06-30T20:05:15.530Z,18.20
2023-06-30T20:08:03.951Z,18.10
2023-06-30T20:10:53.099Z,18.10
2023-06-30T20:13:41.754Z,18.10
2023-06-30T20:16:29.480Z,18.10
2023-06-30T20:19:17.112Z,18.00
2023-06-30T20:22:04.772Z,18.00
2023-06-30T20:24:52.961Z,18.00
2023-06-30T20:27:43.714Z,17.90
2023-06-30T20:30:34.335Z,17.90
2023-06-30T20:33:22.276Z,17.90
2023-06-30T20:36:09.821Z,17.90
2023-06-30T20:38:59.577Z,17.80
2023-06-30T20:41:47.010Z,17.80
2023-06-30T20:44:36.682Z,17.70
2023-06-30T20:47:25.300Z,17.70
2023-06-30T20:50:12.923Z,17.70
2023-06-30T20:53:00.847Z,17.70
2023-06-30T20:55:49.324Z,17.70
2023-06-30T20:58:36.804Z,17.70
2023-06-30T21:01:26.053Z,17.60
2023-06-30T21:04:13.861Z,17.60
2023-06-30T21:07:01.629Z,17.60
2023-06-30T21:09:49.419Z,17.60
2023-06-30T21:12:37.833Z,17.60
2023-06-30T21:15:25.737Z,17.60
2023-06-30T21:18:15.503Z,17.60
2023-06-30T21:21:03.632Z,17.50
2023-06-30T21:23:51.372Z,17.50
2023-06-30T21:26:39.765Z,17.50
2023-06-30T21:29:27.783Z,17.50
2023-06-30T21:32:15.536Z,17.60
2023-06-30T21:35:04.332Z,17.50
2023-06-30T21:37:52.970Z,17.50
2023-06-30T21:40:40.412Z,17.50
2023-06-30T21:43:27.772Z,17.50
2023-06-30T21:46:16.451Z,17.50
2023-06-30T21:49:03.973Z,17.40
2023-06-30T21:51:52.866Z,17.40
2023-06-30T21:54:48.657Z,17.40
2023-06-30T21:57:36.903Z,17.40
2023-06-30T22:00:25.050Z,17.40
2023-06-30T22:03:13.164Z,17.40
2023-06-30T22:06:01.486Z,17.30
2023-06-30T22:08:53.361Z,17.30
2023-06-30T22:11:44.258Z,17.30
2023-06-30T22:14:31.741Z,17.30
2023-06-30T22:17:19.176Z,17.30
2023-06-30T22:20:08.596Z,17.30
2023-06-30T22:22:56.079Z,17.20
2023-06-30T22:25:45.066Z,17.30
2023-06-30T22:28:32.768Z,17.30
2023-06-30T22:31:20.341Z,17.20
2023-06-30T22:34:08.113Z,17.20
2023-06-30T22:36:55.725Z,17.20
2023-06-30T22:39:43.566Z,17.20
2023-06-30T22:42:32.408Z,17.20
2023-06-30T22:45:20.149Z,17.10
2023-06-30T22:48:07.764Z,17.10
2023-06-30T22:50:55.519Z,17.10
2023-06-30T22:53:43.161Z,17.00
2023-06-30T22:56:30.696Z,17.00
2023-06-30T22:59:20.031Z,17.10
2023-06-30T23:02:07.901Z,17.10
2023-06-30T23:04:55.437Z,17.00
2023-06-30T23:07:42.963Z,17.00
2023-06-30T23:10:31.011Z,17.00
2023-06-30T23:13:19.112Z,17.00
2023-06-30T23:16:10.310Z,17.00
2023-06-30T23:18:58.618Z,17.00
2023-06-30T23:21:46.747Z,16.90
2023-06-30T23:24:35.143Z,16.90
2023-06-30T23:27:24.623Z,16.90
2023-06-30T23:30:13.115Z,16.90
2023-06-30T23:33:04.885Z,16.90
2023-06-30T23:35:52.796Z,16.80
2023-06-30T23:38:40.820Z,16.70
2023-06-30T23:41:29.750Z,16.70
2023-06-30T23:44:17.630Z,16.70
2023-06-30T23:47:07.290Z,16.60
2023-06-30T23:49:56.431Z,16.50
2023-06-30T23:52:44.175Z,16.50
2023-06-30T23:55:31.610Z,16.40
2023-06-30T23:58:19.072Z,16.40
